sensor_id;sensor_type;location;lat;lon;timestamp;pressure;altitude;pressure_sealevel;temperature;humidity
64402;BME280;50724;42.376;23.768;2023-09-18T00:00:09;93748.34;;;15.29;100.00
64402;BME280;50724;42.376;23.768;2023-09-18T00:03:11;93744.72;;;15.30;100.00
64402;BME280;50724;42.376;23.768;2023-09-18T00:06:12;93742.03;;;15.38;100.00
64402;BME280;50724;42.376;23.768;2023-09-18T00:09:12;93743.84;;;15.37;100.00
64402;BME280;50724;42.376;23.768;2023-09-18T00:12:14;93741.00;;;15.39;100.00
64402;BME280;50724;42.376;23.768;2023-09-18T00:15:14;93747.56;;;15.43;100.00
64402;BME280;50724;42.376;23.768;2023-09-18T00:18:15;93747.13;;;15.39;100.00
64402;BME280;50724;42.376;23.768;2023-09-18T00:21:16;93742.66;;;15.40;100.00
64402;BME280;50724;42.376;23.768;2023-09-18T00:24:16;93742.38;;;15.35;100.00
64402;BME280;50724;42.376;23.768;2023-09-18T00:27:17;93750.19;;;15.43;100.00
64402;BME280;50724;42.376;23.768;2023-09-18T00:30:18;93734.34;;;15.51;100.00
64402;BME280;50724;42.376;23.768;2023-09-18T00:33:19;93727.69;;;15.55;100.00
64402;BME280;50724;42.376;23.768;2023-09-18T00:36:19;93728.53;;;15.55;100.00
64402;BME280;50724;42.376;23.768;2023-09-18T00:39:20;93726.16;;;15.46;100.00
64402;BME280;50724;42.376;23.768;2023-09-18T00:42:20;93731.72;;;15.51;100.00
64402;BME280;50724;42.376;23.768;2023-09-18T00:45:22;93731.75;;;15.43;100.00
64402;BME280;50724;42.376;23.768;2023-09-18T00:48:23;93725.94;;;15.33;100.00
64402;BME280;50724;42.376;23.768;2023-09-18T00:51:23;93734.81;;;15.32;100.00
64402;BME280;50724;42.376;23.768;2023-09-18T00:54:24;93737.41;;;15.40;100.00
64402;BME280;50724;42.376;23.768;2023-09-18T00:57:25;93736.56;;;15.39;100.00
64402;BME280;50724;42.376;23.768;2023-09-18T01:00:25;93732.13;;;15.40;100.00
64402;BME280;50724;42.376;23.768;2023-09-18T01:03:26;93738.09;;;15.34;100.00
64402;BME280;50724;42.376;23.768;2023-09-18T01:06:26;93742.44;;;15.27;100.00
64402;BME280;50724;42.376;23.768;2023-09-18T01:09:31;93740.28;;;15.30;100.00
64402;BME280;50724;42.376;23.768;2023-09-18T01:12:45;93733.75;;;15.41;100.00
64402;BME280;50724;42.376;23.768;2023-09-18T01:15:53;93738.25;;;15.55;100.00
64402;BME280;50724;42.376;23.768;2023-09-18T01:18:54;93731.81;;;15.57;100.00
64402;BME280;50724;42.376;23.768;2023-09-18T01:21:55;93738.03;;;15.42;100.00
64402;BME280;50724;42.376;23.768;2023-09-18T01:24:55;93733.06;;;15.47;100.00
64402;BME280;50724;42.376;23.768;2023-09-18T01:27:55;93737.63;;;15.53;100.00
64402;BME280;50724;42.376;23.768;2023-09-18T01:30:56;93729.25;;;15.49;100.00
64402;BME280;50724;42.376;23.768;2023-09-18T01:33:56;93734.81;;;15.69;100.00
64402;BME280;50724;42.376;23.768;2023-09-18T01:36:58;93731.81;;;15.57;100.00
64402;BME280;50724;42.376;23.768;2023-09-18T01:39:59;93737.00;;;15.43;100.00
64402;BME280;50724;42.376;23.768;2023-09-18T01:43:00;93730.66;;;15.37;100.00
64402;BME280;50724;42.376;23.768;2023-09-18T01:46:00;93735.09;;;15.37;100.00
64402;BME280;50724;42.376;23.768;2023-09-18T01:49:01;93728.19;;;15.36;100.00
64402;BME280;50724;42.376;23.768;2023-09-18T01:52:03;93731.09;;;15.41;100.00
64402;BME280;50724;42.376;23.768;2023-09-18T01:55:04;93731.50;;;15.38;100.00
64402;BME280;50724;42.376;23.768;2023-09-18T01:58:05;93732.13;;;15.40;100.00
64402;BME280;50724;42.376;23.768;2023-09-18T02:01:05;93730.66;;;15.37;100.00
64402;BME280;50724;42.376;23.768;2023-09-18T02:04:06;93737.44;;;15.54;100.00
64402;BME280;50724;42.376;23.768;2023-09-18T02:07:06;93734.69;;;15.48;100.00
64402;BME280;50724;42.376;23.768;2023-09-18T02:10:07;93739.53;;;15.44;100.00
64402;BME280;50724;42.376;23.768;2023-09-18T02:13:08;93737.41;;;15.40;100.00
64402;BME280;50724;42.376;23.768;2023-09-18T02:16:08;93743.50;;;15.40;100.00
64402;BME280;50724;42.376;23.768;2023-09-18T02:19:09;93741.09;;;15.31;100.00
64402;BME280;50724;42.376;23.768;2023-09-18T02:22:20;93748.63;;;15.34;100.00
64402;BME280;50724;42.376;23.768;2023-09-18T02:25:20;93741.28;;;15.29;100.00
64402;BME280;50724;42.376;23.768;2023-09-18T02:28:21;93743.81;;;15.23;100.00
64402;BME280;50724;42.376;23.768;2023-09-18T02:31:21;93746.19;;;15.32;100.00
64402;BME280;50724;42.376;23.768;2023-09-18T02:34:23;93745.03;;;15.35;100.00
64402;BME280;50724;42.376;23.768;2023-09-18T02:37:23;93741.09;;;15.31;100.00
64402;BME280;50724;42.376;23.768;2023-09-18T02:40:24;93744.16;;;15.20;100.00
64402;BME280;50724;42.376;23.768;2023-09-18T02:43:24;93744.53;;;15.17;100.00
64402;BME280;50724;42.376;23.768;2023-09-18T02:46:34;93744.97;;;15.20;100.00
64402;BME280;50724;42.376;23.768;2023-09-18T02:49:34;93750.50;;;15.10;100.00
64402;BME280;50724;42.376;23.768;2023-09-18T02:52:34;93753.03;;;15.04;100.00
64402;BME280;50724;42.376;23.768;2023-09-18T02:55:44;93745.31;;;15.02;100.00
64402;BME280;50724;42.376;23.768;2023-09-18T02:58:44;93747.94;;;15.02;100.00
64402;BME280;50724;42.376;23.768;2023-09-18T03:01:44;93751.09;;;14.98;100.00
64402;BME280;50724;42.376;23.768;2023-09-18T03:04:54;93752.72;;;14.99;100.00
64402;BME280;50724;42.376;23.768;2023-09-18T03:07:54;93747.41;;;15.07;100.00
64402;BME280;50724;42.376;23.768;2023-09-18T03:10:54;93755.41;;;15.13;100.00
64402;BME280;50724;42.376;23.768;2023-09-18T03:13:55;93758.28;;;15.04;100.00
64402;BME280;50724;42.376;23.768;2023-09-18T03:16:55;93752.72;;;14.99;100.00
64402;BME280;50724;42.376;23.768;2023-09-18T03:19:56;93754.38;;;15.00;100.00
64402;BME280;50724;42.376;23.768;2023-09-18T03:22:58;93753.44;;;14.93;100.00
64402;BME280;50724;42.376;23.768;2023-09-18T03:25:58;93749.91;;;15.00;100.00
64402;BME280;50724;42.376;23.768;2023-09-18T03:28:59;93751.59;;;14.93;100.00
64402;BME280;50724;42.376;23.768;2023-09-18T03:32:00;93748.81;;;14.95;100.00
64402;BME280;50724;42.376;23.768;2023-09-18T03:35:00;93744.31;;;14.81;100.00
64402;BME280;50724;42.376;23.768;2023-09-18T03:38:01;93738.16;;;14.66;100.00
64402;BME280;50724;42.376;23.768;2023-09-18T03:41:02;93739.16;;;14.65;100.00
64402;BME280;50724;42.376;23.768;2023-09-18T03:44:03;93736.88;;;14.62;100.00
64402;BME280;50724;42.376;23.768;2023-09-18T03:47:04;93733.47;;;14.53;100.00
64402;BME280;50724;42.376;23.768;2023-09-18T03:50:06;93732.75;;;14.36;100.00
64402;BME280;50724;42.376;23.768;2023-09-18T03:53:08;93725.00;;;14.35;100.00
64402;BME280;50724;42.376;23.768;2023-09-18T03:56:08;93724.84;;;14.36;100.00
64402;BME280;50724;42.376;23.768;2023-09-18T03:59:09;93722.56;;;14.33;100.00
64402;BME280;50724;42.376;23.768;2023-09-18T04:02:09;93730.63;;;14.32;100.00
64402;BME280;50724;42.376;23.768;2023-09-18T04:05:18;93727.19;;;14.31;100.00
64402;BME280;50724;42.376;23.768;2023-09-18T04:08:19;93729.53;;;14.18;100.00
64402;BME280;50724;42.376;23.768;2023-09-18T04:11:19;93724.72;;;14.22;100.00
64402;BME280;50724;42.376;23.768;2023-09-18T04:14:25;93722.91;;;14.30;100.00
64402;BME280;50724;42.376;23.768;2023-09-18T04:17:25;93730.13;;;14.36;100.00
64402;BME280;50724;42.376;23.768;2023-09-18T04:20:26;93727.94;;;14.40;100.00
64402;BME280;50724;42.376;23.768;2023-09-18T04:23:27;93728.88;;;14.47;100.00
64402;BME280;50724;42.376;23.768;2023-09-18T04:26:28;93728.03;;;14.55;100.00
64402;BME280;50724;42.376;23.768;2023-09-18T04:29:33;93732.31;;;14.56;100.00
64402;BME280;50724;42.376;23.768;2023-09-18T04:32:33;93722.34;;;14.66;100.00
64402;BME280;50724;42.376;23.768;2023-09-18T04:35:34;93734.22;;;14.84;100.00
64402;BME280;50724;42.376;23.768;2023-09-18T04:38:34;93732.53;;;14.91;100.00
64402;BME280;50724;42.376;23.768;2023-09-18T04:41:34;93740.03;;;14.80;100.00
64402;BME280;50724;42.376;23.768;2023-09-18T04:44:35;93739.56;;;14.76;100.00
64402;BME280;50724;42.376;23.768;2023-09-18T04:47:35;93743.78;;;14.85;100.00
64402;BME280;50724;42.376;23.768;2023-09-18T04:50:36;93737.78;;;14.91;100.00
64402;BME280;50724;42.376;23.768;2023-09-18T04:53:36;93742.78;;;15.09;100.00
64402;BME280;50724;42.376;23.768;2023-09-18T04:56:36;93737.44;;;14.94;100.00
64402;BME280;50724;42.376;23.768;2023-09-18T04:59:37;93741.00;;;15.01;100.00
64402;BME280;50724;42.376;23.768;2023-09-18T05:02:37;93737.50;;;15.09;100.00
64402;BME280;50724;42.376;23.768;2023-09-18T05:05:38;93735.44;;;15.19;100.00
64402;BME280;50724;42.376;23.768;2023-09-18T05:08:38;93731.91;;;15.27;100.00
64402;BME280;50724;42.376;23.768;2023-09-18T05:11:39;93727.84;;;15.39;100.00
64402;BME280;50724;42.376;23.768;2023-09-18T05:14:42;93731.50;;;15.15;100.00
64402;BME280;50724;42.376;23.768;2023-09-18T05:17:47;93734.53;;;15.27;100.00
64402;BME280;50724;42.376;23.768;2023-09-18T05:20:48;93726.97;;;15.46;100.00
64402;BME280;50724;42.376;23.768;2023-09-18T05:23:50;93728.44;;;15.49;100.00
64402;BME280;50724;42.376;23.768;2023-09-18T05:26:50;93733.25;;;15.60;100.00
64402;BME280;50724;42.376;23.768;2023-09-18T05:29:53;93729.06;;;15.95;100.00
64402;BME280;50724;42.376;23.768;2023-09-18T05:32:54;93724.88;;;16.15;100.00
64402;BME280;50724;42.376;23.768;2023-09-18T05:35:54;93730.38;;;15.99;100.00
64402;BME280;50724;42.376;23.768;2023-09-18T05:39:06;93732.06;;;16.21;100.00
64402;BME280;50724;42.376;23.768;2023-09-18T05:42:11;93735.66;;;16.34;100.00
64402;BME280;50724;42.376;23.768;2023-09-18T06:24:12;93765.47;;;17.91;96.63
64402;BME280;50724;42.376;23.768;2023-09-18T06:27:22;93768.53;;;17.95;97.18
64402;BME280;50724;42.376;23.768;2023-09-18T06:30:23;93762.34;;;18.15;97.36
64402;BME280;50724;42.376;23.768;2023-09-18T06:33:23;93758.56;;;18.31;96.52
64402;BME280;50724;42.376;23.768;2023-09-18T06:36:23;93756.72;;;18.31;94.84
64402;BME280;50724;42.376;23.768;2023-09-18T06:39:24;93762.41;;;17.94;96.54
64402;BME280;50724;42.376;23.768;2023-09-18T06:42:26;93758.16;;;18.34;95.39
64402;BME280;50724;42.376;23.768;2023-09-18T06:45:26;93767.56;;;18.84;93.66
64402;BME280;50724;42.376;23.768;2023-09-18T06:48:28;93766.38;;;18.93;91.24
64402;BME280;50724;42.376;23.768;2023-09-18T06:51:32;93769.06;;;19.06;91.19
64402;BME280;50724;42.376;23.768;2023-09-18T06:54:32;93760.44;;;18.43;93.26
64402;BME280;50724;42.376;23.768;2023-09-18T06:57:33;93766.25;;;18.53;92.62
64402;BME280;50724;42.376;23.768;2023-09-18T07:00:34;93769.78;;;18.80;92.12
64402;BME280;50724;42.376;23.768;2023-09-18T07:03:35;93768.91;;;18.60;92.09
64402;BME280;50724;42.376;23.768;2023-09-18T07:06:37;93769.22;;;18.85;90.11
64402;BME280;50724;42.376;23.768;2023-09-18T07:09:37;93765.75;;;18.97;88.57
64402;BME280;50724;42.376;23.768;2023-09-18T07:12:38;93767.81;;;19.08;87.87
64402;BME280;50724;42.376;23.768;2023-09-18T07:15:39;93773.09;;;18.89;89.00
64402;BME280;50724;42.376;23.768;2023-09-18T07:18:48;93773.13;;;19.08;89.55
64402;BME280;50724;42.376;23.768;2023-09-18T07:22:00;93772.94;;;19.16;88.64
64402;BME280;50724;42.376;23.768;2023-09-18T07:25:01;93777.44;;;19.22;88.49
64402;BME280;50724;42.376;23.768;2023-09-18T07:28:01;93782.50;;;19.04;88.13
64402;BME280;50724;42.376;23.768;2023-09-18T07:31:06;93778.19;;;18.90;89.44
64402;BME280;50724;42.376;23.768;2023-09-18T07:34:07;93775.28;;;18.72;89.69
64402;BME280;50724;42.376;23.768;2023-09-18T07:37:07;93781.38;;;18.66;90.49
64402;BME280;50724;42.376;23.768;2023-09-18T07:40:08;93775.06;;;18.67;91.11
64402;BME280;50724;42.376;23.768;2023-09-18T07:43:08;93779.50;;;18.53;90.62
64402;BME280;50724;42.376;23.768;2023-09-18T07:46:09;93780.13;;;18.21;92.46
64402;BME280;50724;42.376;23.768;2023-09-18T07:49:09;93778.97;;;18.37;91.59
64402;BME280;50724;42.376;23.768;2023-09-18T07:52:10;93788.44;;;18.52;90.38
64402;BME280;50724;42.376;23.768;2023-09-18T07:55:10;93779.06;;;19.17;88.88
64402;BME280;50724;42.376;23.768;2023-09-18T07:58:11;93779.94;;;19.37;87.95
64402;BME280;50724;42.376;23.768;2023-09-18T08:01:12;93781.59;;;19.51;85.57
64402;BME280;50724;42.376;23.768;2023-09-18T08:04:12;93771.16;;;20.09;84.05
64402;BME280;50724;42.376;23.768;2023-09-18T08:07:13;93780.28;;;20.52;79.91
64402;BME280;50724;42.376;23.768;2023-09-18T08:10:13;93774.81;;;20.34;79.12
64402;BME280;50724;42.376;23.768;2023-09-18T08:13:14;93773.97;;;20.40;79.59
64402;BME280;50724;42.376;23.768;2023-09-18T08:16:15;93783.75;;;20.52;77.82
64402;BME280;50724;42.376;23.768;2023-09-18T08:19:15;93777.91;;;20.24;76.92
64402;BME280;50724;42.376;23.768;2023-09-18T08:22:17;93770.59;;;19.48;82.20
64402;BME280;50724;42.376;23.768;2023-09-18T08:25:19;93770.16;;;19.90;81.23
64402;BME280;50724;42.376;23.768;2023-09-18T08:28:19;93761.75;;;20.13;76.68
64402;BME280;50724;42.376;23.768;2023-09-18T08:31:20;93763.59;;;20.12;78.42
64402;BME280;50724;42.376;23.768;2023-09-18T08:34:20;93758.28;;;20.06;79.61
64402;BME280;50724;42.376;23.768;2023-09-18T08:37:21;93756.66;;;20.11;81.22
64402;BME280;50724;42.376;23.768;2023-09-18T08:40:22;93749.09;;;20.02;78.34
64402;BME280;50724;42.376;23.768;2023-09-18T08:43:24;93743.19;;;19.86;80.44
64402;BME280;50724;42.376;23.768;2023-09-18T08:46:34;93738.28;;;20.03;80.81
64402;BME280;50724;42.376;23.768;2023-09-18T08:49:35;93744.03;;;19.54;80.24
64402;BME280;50724;42.376;23.768;2023-09-18T08:52:36;93740.34;;;19.95;81.19
64402;BME280;50724;42.376;23.768;2023-09-18T08:55:37;93739.81;;;20.43;79.77
64402;BME280;50724;42.376;23.768;2023-09-18T08:58:38;93733.59;;;20.69;75.39
64402;BME280;50724;42.376;23.768;2023-09-18T09:01:42;93738.84;;;20.82;75.47
64402;BME280;50724;42.376;23.768;2023-09-18T09:04:43;93742.22;;;21.65;73.17
64402;BME280;50724;42.376;23.768;2023-09-18T09:07:44;93730.84;;;22.43;69.37
64402;BME280;50724;42.376;23.768;2023-09-18T09:10:44;93726.00;;;22.52;65.58
64402;BME280;50724;42.376;23.768;2023-09-18T09:13:45;93731.06;;;23.08;67.30
64402;BME280;50724;42.376;23.768;2023-09-18T09:16:49;93734.53;;;22.79;66.68
64402;BME280;50724;42.376;23.768;2023-09-18T09:19:50;93727.09;;;22.99;65.82
64402;BME280;50724;42.376;23.768;2023-09-18T09:22:50;93730.22;;;23.25;63.59
64402;BME280;50724;42.376;23.768;2023-09-18T09:25:52;93730.63;;;23.41;64.62
64402;BME280;50724;42.376;23.768;2023-09-18T09:28:52;93721.44;;;23.07;62.76
64402;BME280;50724;42.376;23.768;2023-09-18T09:31:53;93729.81;;;22.81;62.71
64402;BME280;50724;42.376;23.768;2023-09-18T09:35:00;93726.47;;;22.67;62.95
64402;BME280;50724;42.376;23.768;2023-09-18T09:38:12;93720.22;;;22.37;63.12
64402;BME280;50724;42.376;23.768;2023-09-18T09:41:16;93725.66;;;21.87;64.03
64402;BME280;50724;42.376;23.768;2023-09-18T09:44:17;93726.97;;;22.21;65.15
64402;BME280;50724;42.376;23.768;2023-09-18T09:47:18;93726.59;;;22.36;64.49
64402;BME280;50724;42.376;23.768;2023-09-18T09:50:19;93718.88;;;22.10;63.08
64402;BME280;50724;42.376;23.768;2023-09-18T09:53:46;93722.75;;;22.50;64.49
64402;BME280;50724;42.376;23.768;2023-09-18T09:56:51;93707.63;;;22.44;65.32
64402;BME280;50724;42.376;23.768;2023-09-18T09:59:51;93714.91;;;22.37;65.18
64402;BME280;50724;42.376;23.768;2023-09-18T10:02:56;93713.56;;;22.28;63.43
64402;BME280;50724;42.376;23.768;2023-09-18T10:05:59;93711.06;;;22.33;63.36
64402;BME280;50724;42.376;23.768;2023-09-18T10:09:04;93719.56;;;22.05;64.92
64402;BME280;50724;42.376;23.768;2023-09-18T10:12:11;93722.13;;;21.94;63.72
64402;BME280;50724;42.376;23.768;2023-09-18T10:15:12;93713.16;;;22.06;61.47
64402;BME280;50724;42.376;23.768;2023-09-18T10:24:36;93708.06;;;22.59;59.90
64402;BME280;50724;42.376;23.768;2023-09-18T10:27:39;93709.44;;;22.50;60.34
64402;BME280;50724;42.376;23.768;2023-09-18T10:30:42;93701.78;;;22.53;61.01
64402;BME280;50724;42.376;23.768;2023-09-18T10:33:43;93700.47;;;22.63;58.90
64402;BME280;50724;42.376;23.768;2023-09-18T10:36:49;93703.31;;;21.64;60.93
64402;BME280;50724;42.376;23.768;2023-09-18T10:39:51;93697.72;;;21.72;61.22
64402;BME280;50724;42.376;23.768;2023-09-18T10:42:54;93697.25;;;22.00;61.87
64402;BME280;50724;42.376;23.768;2023-09-18T10:45:56;93690.69;;;22.20;60.89
64402;BME280;50724;42.376;23.768;2023-09-18T10:48:59;93688.69;;;21.98;61.94
64402;BME280;50724;42.376;23.768;2023-09-18T10:51:59;93684.09;;;22.05;60.55
64402;BME280;50724;42.376;23.768;2023-09-18T10:55:01;93678.63;;;22.36;58.92
64402;BME280;50724;42.376;23.768;2023-09-18T10:58:04;93676.94;;;22.89;58.04
64402;BME280;50724;42.376;23.768;2023-09-18T11:01:05;93675.50;;;22.75;56.75
64402;BME280;50724;42.376;23.768;2023-09-18T11:04:07;93656.59;;;22.11;57.99
64402;BME280;50724;42.376;23.768;2023-09-18T11:07:20;93665.28;;;21.57;59.55
64402;BME280;50724;42.376;23.768;2023-09-18T11:10:27;93668.47;;;21.90;56.49
64402;BME280;50724;42.376;23.768;2023-09-18T11:13:29;93655.22;;;22.38;56.49
64402;BME280;50724;42.376;23.768;2023-09-18T11:19:31;93660.63;;;22.13;57.83
64402;BME280;50724;42.376;23.768;2023-09-18T11:22:32;93660.47;;;21.90;59.89
64402;BME280;50724;42.376;23.768;2023-09-18T11:25:40;93656.72;;;21.98;59.11
64402;BME280;50724;42.376;23.768;2023-09-18T11:28:47;93653.38;;;22.38;58.44
64402;BME280;50724;42.376;23.768;2023-09-18T11:31:52;93653.38;;;23.27;55.02
64402;BME280;50724;42.376;23.768;2023-09-18T11:35:06;93643.34;;;23.53;55.30
64402;BME280;50724;42.376;23.768;2023-09-18T11:38:08;93650.31;;;23.54;54.05
64402;BME280;50724;42.376;23.768;2023-09-18T11:41:27;93639.72;;;23.59;54.31
64402;BME280;50724;42.376;23.768;2023-09-18T11:47:28;93634.19;;;23.19;55.66
64402;BME280;50724;42.376;23.768;2023-09-18T11:50:29;93625.22;;;23.55;55.79
64402;BME280;50724;42.376;23.768;2023-09-18T11:53:40;93624.84;;;24.21;52.37
64402;BME280;50724;42.376;23.768;2023-09-18T11:56:44;93620.78;;;24.18;49.47
64402;BME280;50724;42.376;23.768;2023-09-18T11:59:45;93620.53;;;24.20;51.83
64402;BME280;50724;42.376;23.768;2023-09-18T12:02:46;93601.72;;;23.91;50.00
64402;BME280;50724;42.376;23.768;2023-09-18T12:05:57;93607.06;;;23.91;51.93
64402;BME280;50724;42.376;23.768;2023-09-18T12:08:58;93615.03;;;24.38;49.88
64402;BME280;50724;42.376;23.768;2023-09-18T12:11:59;93610.28;;;24.40;49.68
64402;BME280;50724;42.376;23.768;2023-09-18T12:15:04;93604.56;;;24.76;48.35
64402;BME280;50724;42.376;23.768;2023-09-18T12:18:06;93599.91;;;24.72;48.51
64402;BME280;50724;42.376;23.768;2023-09-18T12:21:07;93603.53;;;24.77;48.16
64402;BME280;50724;42.376;23.768;2023-09-18T12:24:13;93599.09;;;24.99;48.07
64402;BME280;50724;42.376;23.768;2023-09-18T12:27:14;93595.63;;;24.71;48.98
64402;BME280;50724;42.376;23.768;2023-09-18T12:30:15;93601.66;;;24.78;49.46
64402;BME280;50724;42.376;23.768;2023-09-18T12:33:20;93598.63;;;25.19;49.60
64402;BME280;50724;42.376;23.768;2023-09-18T12:36:21;93585.50;;;25.34;48.19
64402;BME280;50724;42.376;23.768;2023-09-18T12:39:21;93587.59;;;25.15;49.27
64402;BME280;50724;42.376;23.768;2023-09-18T12:42:22;93584.88;;;25.44;47.38
64402;BME280;50724;42.376;23.768;2023-09-18T12:45:23;93586.06;;;25.69;46.98
64402;BME280;50724;42.376;23.768;2023-09-18T12:48:24;93586.56;;;25.50;45.53
64402;BME280;50724;42.376;23.768;2023-09-18T12:51:31;93576.00;;;25.43;46.07
64402;BME280;50724;42.376;23.768;2023-09-18T12:54:41;93580.38;;;25.33;48.33
64402;BME280;50724;42.376;23.768;2023-09-18T12:57:42;93581.94;;;25.62;46.90
64402;BME280;50724;42.376;23.768;2023-09-18T13:00:47;93584.94;;;25.49;46.05
64402;BME280;50724;42.376;23.768;2023-09-18T13:03:53;93582.34;;;25.54;45.30
64402;BME280;50724;42.376;23.768;2023-09-18T13:07:09;93581.28;;;25.55;45.37
64402;BME280;50724;42.376;23.768;2023-09-18T13:10:10;93578.13;;;25.58;44.35
64402;BME280;50724;42.376;23.768;2023-09-18T13:13:21;93580.22;;;25.06;47.01
64402;BME280;50724;42.376;23.768;2023-09-18T13:16:22;93569.97;;;24.86;47.17
64402;BME280;50724;42.376;23.768;2023-09-18T13:19:23;93563.91;;;25.07;47.83
64402;BME280;50724;42.376;23.768;2023-09-18T13:22:24;93574.25;;;24.59;47.52
64402;BME280;50724;42.376;23.768;2023-09-18T13:25:28;93565.31;;;24.53;47.53
64402;BME280;50724;42.376;23.768;2023-09-18T13:28:29;93555.59;;;24.47;47.13
64402;BME280;50724;42.376;23.768;2023-09-18T13:31:31;93553.28;;;24.11;47.92
64402;BME280;50724;42.376;23.768;2023-09-18T13:34:32;93556.38;;;24.20;48.27
64402;BME280;50724;42.376;23.768;2023-09-18T13:37:34;93551.91;;;24.37;46.95
64402;BME280;50724;42.376;23.768;2023-09-18T13:40:35;93554.25;;;24.62;45.73
64402;BME280;50724;42.376;23.768;2023-09-18T13:43:36;93553.72;;;24.48;47.57
64402;BME280;50724;42.376;23.768;2023-09-18T13:46:37;93547.47;;;24.42;48.28
64402;BME280;50724;42.376;23.768;2023-09-18T13:49:38;93542.81;;;24.10;49.44
64402;BME280;50724;42.376;23.768;2023-09-18T13:52:38;93544.84;;;24.59;49.06
64402;BME280;50724;42.376;23.768;2023-09-18T13:55:39;93552.06;;;24.30;47.49
64402;BME280;50724;42.376;23.768;2023-09-18T13:58:39;93548.63;;;23.95;47.32
64402;BME280;50724;42.376;23.768;2023-09-18T14:01:41;93553.56;;;23.75;49.59
64402;BME280;50724;42.376;23.768;2023-09-18T14:04:42;93551.25;;;23.67;50.53
64402;BME280;50724;42.376;23.768;2023-09-18T14:07:42;93551.13;;;23.73;49.53
64402;BME280;50724;42.376;23.768;2023-09-18T14:10:44;93555.78;;;23.66;51.04
64402;BME280;50724;42.376;23.768;2023-09-18T14:13:44;93549.50;;;23.72;50.04
64402;BME280;50724;42.376;23.768;2023-09-18T14:16:45;93550.44;;;23.66;50.58
64402;BME280;50724;42.376;23.768;2023-09-18T14:21:48;93550.31;;;23.61;49.47
64402;BME280;50724;42.376;23.768;2023-09-18T14:24:57;93552.50;;;23.76;50.14
64402;BME280;50724;42.376;23.768;2023-09-18T14:27:58;93542.53;;;23.60;49.56
64402;BME280;50724;42.376;23.768;2023-09-18T14:30:58;93542.78;;;23.58;50.31
64402;BME280;50724;42.376;23.768;2023-09-18T14:33:59;93541.28;;;23.39;50.20
64402;BME280;50724;42.376;23.768;2023-09-18T14:37:00;93538.16;;;23.54;50.58
64402;BME280;50724;42.376;23.768;2023-09-18T14:40:01;93542.81;;;23.47;51.19
64402;BME280;50724;42.376;23.768;2023-09-18T14:43:02;93538.03;;;23.37;50.34
64402;BME280;50724;42.376;23.768;2023-09-18T14:46:05;93545.47;;;23.47;50.84
64402;BME280;50724;42.376;23.768;2023-09-18T14:49:06;93542.16;;;23.21;50.94
64402;BME280;50724;42.376;23.768;2023-09-18T14:52:07;93541.59;;;23.08;51.69
64402;BME280;50724;42.376;23.768;2023-09-18T14:55:08;93537.88;;;23.20;49.72
64402;BME280;50724;42.376;23.768;2023-09-18T14:58:08;93530.75;;;22.80;51.98
64402;BME280;50724;42.376;23.768;2023-09-18T15:01:10;93529.81;;;22.74;51.99
64402;BME280;50724;42.376;23.768;2023-09-18T15:04:11;93524.59;;;22.68;51.01
64402;BME280;50724;42.376;23.768;2023-09-18T15:07:11;93532.13;;;22.29;51.42
64402;BME280;50724;42.376;23.768;2023-09-18T15:10:11;93537.22;;;22.31;51.98
64402;BME280;50724;42.376;23.768;2023-09-18T15:13:12;93537.13;;;22.08;53.53
64402;BME280;50724;42.376;23.768;2023-09-18T15:16:15;93536.47;;;21.94;53.76
64402;BME280;50724;42.376;23.768;2023-09-18T15:19:16;93542.66;;;22.06;54.36
64402;BME280;50724;42.376;23.768;2023-09-18T15:22:17;93536.81;;;21.98;53.28
64402;BME280;50724;42.376;23.768;2023-09-18T15:25:26;93548.59;;;21.72;53.73
64402;BME280;50724;42.376;23.768;2023-09-18T15:28:28;93546.06;;;21.77;54.08
64402;BME280;50724;42.376;23.768;2023-09-18T15:31:29;93544.66;;;21.74;54.07
64402;BME280;50724;42.376;23.768;2023-09-18T15:34:30;93541.84;;;21.69;54.93
64402;BME280;50724;42.376;23.768;2023-09-18T15:37:30;93545.41;;;21.63;55.42
64402;BME280;50724;42.376;23.768;2023-09-18T15:40:31;93550.44;;;21.53;55.29
64402;BME280;50724;42.376;23.768;2023-09-18T15:43:31;93538.38;;;21.51;54.80
64402;BME280;50724;42.376;23.768;2023-09-18T15:46:33;93545.38;;;21.45;55.48
64402;BME280;50724;42.376;23.768;2023-09-18T15:49:34;93545.75;;;21.31;56.82
64402;BME280;50724;42.376;23.768;2023-09-18T15:52:35;93544.69;;;21.13;56.62
64402;BME280;50724;42.376;23.768;2023-09-18T15:55:36;93536.03;;;20.69;57.47
64402;BME280;50724;42.376;23.768;2023-09-18T15:58:37;93540.16;;;20.65;58.86
64402;BME280;50724;42.376;23.768;2023-09-18T16:01:37;93547.31;;;20.64;58.26
64402;BME280;50724;42.376;23.768;2023-09-18T16:04:45;93549.91;;;20.46;58.46
64402;BME280;50724;42.376;23.768;2023-09-18T16:07:46;93543.38;;;20.04;61.13
64402;BME280;50724;42.376;23.768;2023-09-18T16:10:46;93547.50;;;19.94;62.27
64402;BME280;50724;42.376;23.768;2023-09-18T16:13:47;93542.75;;;19.58;63.88
64402;BME280;50724;42.376;23.768;2023-09-18T16:16:47;93541.19;;;19.37;63.28
64402;BME280;50724;42.376;23.768;2023-09-18T16:19:48;93542.00;;;19.25;64.47
64402;BME280;50724;42.376;23.768;2023-09-18T16:22:48;93539.38;;;19.05;65.16
64402;BME280;50724;42.376;23.768;2023-09-18T16:25:49;93541.66;;;18.82;65.63
64402;BME280;50724;42.376;23.768;2023-09-18T16:28:49;93544.31;;;18.75;64.79
64402;BME280;50724;42.376;23.768;2023-09-18T16:31:50;93538.19;;;18.62;64.33
64402;BME280;50724;42.376;23.768;2023-09-18T16:34:50;93543.63;;;18.34;65.61
64402;BME280;50724;42.376;23.768;2023-09-18T16:37:51;93540.16;;;18.14;65.81